Relevés horaires Crap Masegn (Suisse)


Relevés horaires à Crap Masegn - Mardi 17 Juill. 2018
Heure UTC1 Température [°C] Vent [km/h] Hum. [%] Pres.4 [hPa] Visi. [Km] Nébu. [octa] Préc.5 [mm] Cond.
2m. Res. Ros. Dir.2 Vit. Moy. Raf.3
19:00 6.5 4.2 2.3 ONO 11.1 -- -- 74 700 -- -- -- --
18:00 6.8 4 2.8 N 14.8 -- 66.7 76 700(0.2/3h) -- -- -- --
17:00 6.9 4.1 2.4 N 14.8 -- -- 73 700 -- -- -- --
16:00 7.0 2 2.9 N 38.9 -- -- 75 700 -- -- -- --
15:00 5.2 -0.1 3.1 N 35.2 -- 66.7 86 700(0.4/3h) -- -- -- --
14:00 8.2 5.1 3.5 N 20.4 -- -- 72 700 -- -- -- --
13:00 7.9 5.6 2.9 N 13.0 -- -- 71 700 -- -- -- --
12:00 6.7 2.2 3.8 NNE 31.5 -- 63.0 82 700(0.5/3h) -- -- -- --
11:00 7.4 2.7 3.3 N 37.0 -- -- 75 700 -- -- -- --
10:00 7.5 3.6 2.3 N 25.9 -- -- 70 700 -- -- -- --
09:00 7.3 3.2 3.5 N 27.8 -- 57.4 77 700(1.0/3h) -- -- -- --
08:00 6.9 2.6 3.7 NNE 29.6 -- -- 80 700 -- -- -- --
07:00 6.1 1.8 3.3 NNE 25.9 -- -- 82 700 -- -- -- --
06:00 5.8 0.8 3.5 N 33.3 -- 59.3 85 700(0.8/3h) -- -- -- --
05:00 5.6 2.8 2.7 N 13.0 -- -- 82 700 -- -- -- --
04:00 5.6 1.6 4.0 NNE 22.2 -- -- 89 700 -- -- -- --
03:00 5.7 1.7 3.4 N 22.2 -- 59.3 85 700(-0.2/3h) -- -- -- --
02:00 6.0 1.9 3.6 NNO 24.1 -- -- 85 700 -- -- -- --
01:00 6.1 2.9 3.7 N 16.7 -- -- 85 700 -- -- -- --
00:00 6.2 2.8 3.7 NNO 18.5 -- 53.7 84 700(0.9/3h) -- -- -- --

1 Coordinated Universal Time. Actuellement il est 21:00 locale et 19:00 UTC.

2 Le vent souffle depuis la direction indiquée vers la direction oposée.

3 Les rafales max. sont disponible 40 min après l'heure du relevé.

4 Pour les stations d'altitude (plus de 600m) le géopotentiel du niveau le plus proche de la pression obligatoire est indiqué.

5 Les stations disposant d'un diffuseur peuvent indiquer "trace". Cela signifie que des précipitations ont touchés le sol mais que la quantité est inférieure à 0.1 mm.

Récapitulatif de la journée
Température [°C] Vent [km/h] Ensoleillement4 [h] Precipitations totale5 [mm] Pression [Hpa]
Min1 Max.2 Moy.3 Max. Min Max.
5.6 8.7 0 66.7 0 h 0 min 0 700.0 700.0

1 Température minimale relevée entre 18:00 UTC la veille et 18:00 UTC le jour donné.

2 Température maximale relevée entre 06:00 UTC le jour donné et 06:00 UTC le lendemain.

3 Vent moyen de la journée basé sur les relevés horaires.

4 Ensoleillement en heures relevé entre 06:00 UTC la veille et 06:00 UTC le jour donné.

5 Précipitations totales tombées entre 06:00 UTC la jour donné et 06:00 UTC le lendemain.

Graphiques horaires